Ana Sayfa
METAR-TAF:

METAR-TAF

Havaalanları :

Amasya Merzifon Havalimanı

Merzifon, Türkiye

Enlem: 40-51N, Boylam: 035-35E, yükseklik: 545 m

Güncel hava durumu gözlemi

Rapor saat 14:20 UTC de 32 dakika önce yapıldı.
Sakin rüzgar
Sıcaklık 5°C
Nem 56%
Basınç 1020 hPa
Görüş mesafesi 10 km veya daha fazla
4000 ft yükseklikte az bulutlu

METAR: LTAP 201420Z 00000KT 9999 FEW040 05/M03 Q1020 NOSIG RMK RWY23 VRB01KT

Saat: 17:52 (14:52 UTC)

Tahmin

Rapor saat 10:40 UTC de 4 saat ve 12 dakika önce yapıldı.
Ayın 20'si saat 12 UTC'den ayın 21'si saat 12 UTC'ye kadar geçerli Tahmin
Rüzgar değişken yönden 2 kt
Görüş mesafesi 10 km veya daha fazla
4000 ft yükseklikte parçalı bulutlu

TAF: LTAP 201040Z 2012/2112 VRB02KT 9999 SCT040

4.000'den fazla havaalanı için hava durumu gözlemleri ve tahminleri (METAR ve TAF raporları).

Kullanılabilir istasyonlar harita üzerinde sarı ve kırmızı noktalarla gösterilir.

İstasyonun adını görmek için fareyi noktanın üzerinde gezdirin.

Sonrasında hava gözlem ve tahminlerini görmek için tıklayın.

Haritayı değiştirmek için: yaklaştırmak için siyah artı işaretli yeşil düğmeye ve uzaklaştırmak için de eksi işaretli düğmeye hızla tıklayın; bitişik haritalar için yeşil okları kullanın.


METAR-TAF: